sensor_id;sensor_type;location;lat;lon;timestamp;P1;durP1;ratioP1;P2;durP2;ratioP2
27533;SDS011;14973;51.460;7.008;2022-09-17T00:01:31;23.95;;;4.00;;
27533;SDS011;14973;51.460;7.008;2022-09-17T00:03:58;19.05;;;4.10;;
27533;SDS011;14973;51.460;7.008;2022-09-17T00:06:27;26.95;;;3.65;;
27533;SDS011;14973;51.460;7.008;2022-09-17T00:08:53;21.52;;;3.53;;
27533;SDS011;14973;51.460;7.008;2022-09-17T00:11:20;19.23;;;3.80;;
27533;SDS011;14973;51.460;7.008;2022-09-17T00:13:48;20.92;;;3.83;;
27533;SDS011;14973;51.460;7.008;2022-09-17T00:19:11;14.90;;;3.55;;
27533;SDS011;14973;51.460;7.008;2022-09-17T00:21:41;21.20;;;3.13;;
27533;SDS011;14973;51.460;7.008;2022-09-17T00:24:07;19.55;;;2.67;;
27533;SDS011;14973;51.460;7.008;2022-09-17T00:26:35;20.33;;;3.58;;
27533;SDS011;14973;51.460;7.008;2022-09-17T00:29:01;15.60;;;3.63;;
27533;SDS011;14973;51.460;7.008;2022-09-17T00:31:28;29.52;;;4.28;;
27533;SDS011;14973;51.460;7.008;2022-09-17T00:33:55;20.05;;;3.22;;
27533;SDS011;14973;51.460;7.008;2022-09-17T00:36:22;20.10;;;3.58;;
27533;SDS011;14973;51.460;7.008;2022-09-17T00:38:48;23.75;;;3.10;;
27533;SDS011;14973;51.460;7.008;2022-09-17T00:41:15;24.92;;;3.00;;
27533;SDS011;14973;51.460;7.008;2022-09-17T00:43:46;18.23;;;3.83;;
27533;SDS011;14973;51.460;7.008;2022-09-17T00:48:47;26.88;;;3.70;;
27533;SDS011;14973;51.460;7.008;2022-09-17T00:51:13;21.77;;;3.67;;
27533;SDS011;14973;51.460;7.008;2022-09-17T00:53:43;23.33;;;3.75;;
27533;SDS011;14973;51.460;7.008;2022-09-17T00:56:10;21.83;;;3.83;;
27533;SDS011;14973;51.460;7.008;2022-09-17T00:58:45;22.40;;;4.05;;
27533;SDS011;14973;51.460;7.008;2022-09-17T01:01:11;28.15;;;4.00;;
27533;SDS011;14973;51.460;7.008;2022-09-17T01:03:36;24.17;;;3.95;;
27533;SDS011;14973;51.460;7.008;2022-09-17T01:08:56;25.63;;;4.63;;
27533;SDS011;14973;51.460;7.008;2022-09-17T01:11:49;16.55;;;3.50;;
27533;SDS011;14973;51.460;7.008;2022-09-17T01:15:09;16.17;;;3.92;;
27533;SDS011;14973;51.460;7.008;2022-09-17T01:17:51;16.60;;;3.40;;
27533;SDS011;14973;51.460;7.008;2022-09-17T01:32:18;33.47;;;4.90;;
27533;SDS011;14973;51.460;7.008;2022-09-17T01:34:56;33.10;;;5.25;;
27533;SDS011;14973;51.460;7.008;2022-09-17T01:45:34;32.88;;;5.05;;
27533;SDS011;14973;51.460;7.008;2022-09-17T01:48:12;31.00;;;5.50;;
27533;SDS011;14973;51.460;7.008;2022-09-17T01:50:46;30.98;;;6.43;;
27533;SDS011;14973;51.460;7.008;2022-09-17T01:53:39;16.70;;;5.05;;
27533;SDS011;14973;51.460;7.008;2022-09-17T01:56:09;22.17;;;4.43;;
27533;SDS011;14973;51.460;7.008;2022-09-17T01:58:41;35.08;;;6.68;;
27533;SDS011;14973;51.460;7.008;2022-09-17T02:01:21;27.70;;;5.28;;
27533;SDS011;14973;51.460;7.008;2022-09-17T02:03:52;25.30;;;4.88;;
27533;SDS011;14973;51.460;7.008;2022-09-17T02:06:23;30.48;;;5.70;;
27533;SDS011;14973;51.460;7.008;2022-09-17T02:08:55;32.33;;;5.13;;
27533;SDS011;14973;51.460;7.008;2022-09-17T02:11:25;27.00;;;5.50;;
27533;SDS011;14973;51.460;7.008;2022-09-17T02:13:55;35.67;;;5.05;;
27533;SDS011;14973;51.460;7.008;2022-09-17T02:21:47;26.58;;;4.85;;
27533;SDS011;14973;51.460;7.008;2022-09-17T02:27:10;22.90;;;4.45;;
27533;SDS011;14973;51.460;7.008;2022-09-17T02:29:40;27.00;;;4.63;;
27533;SDS011;14973;51.460;7.008;2022-09-17T02:32:07;27.15;;;5.25;;
27533;SDS011;14973;51.460;7.008;2022-09-17T02:34:34;30.40;;;4.43;;
27533;SDS011;14973;51.460;7.008;2022-09-17T02:37:00;29.08;;;5.43;;
27533;SDS011;14973;51.460;7.008;2022-09-17T02:39:27;36.80;;;5.57;;
27533;SDS011;14973;51.460;7.008;2022-09-17T02:44:56;27.40;;;6.65;;
27533;SDS011;14973;51.460;7.008;2022-09-17T02:50:40;40.15;;;5.28;;
27533;SDS011;14973;51.460;7.008;2022-09-17T02:56:10;30.50;;;4.88;;
27533;SDS011;14973;51.460;7.008;2022-09-17T03:04:14;24.77;;;5.22;;
27533;SDS011;14973;51.460;7.008;2022-09-17T03:06:44;31.75;;;5.82;;
27533;SDS011;14973;51.460;7.008;2022-09-17T03:09:11;28.30;;;5.70;;
27533;SDS011;14973;51.460;7.008;2022-09-17T03:11:38;39.72;;;6.30;;
27533;SDS011;14973;51.460;7.008;2022-09-17T03:14:04;36.33;;;5.82;;
27533;SDS011;14973;51.460;7.008;2022-09-17T03:16:30;23.67;;;5.57;;
27533;SDS011;14973;51.460;7.008;2022-09-17T03:18:56;43.67;;;5.45;;
27533;SDS011;14973;51.460;7.008;2022-09-17T03:21:22;25.92;;;4.95;;
27533;SDS011;14973;51.460;7.008;2022-09-17T03:23:47;45.45;;;5.10;;
27533;SDS011;14973;51.460;7.008;2022-09-17T03:26:13;26.48;;;4.60;;
27533;SDS011;14973;51.460;7.008;2022-09-17T03:28:38;31.05;;;5.15;;
27533;SDS011;14973;51.460;7.008;2022-09-17T03:31:04;30.20;;;5.40;;
27533;SDS011;14973;51.460;7.008;2022-09-17T03:33:30;30.17;;;4.45;;
27533;SDS011;14973;51.460;7.008;2022-09-17T03:35:56;24.08;;;4.68;;
27533;SDS011;14973;51.460;7.008;2022-09-17T03:38:21;26.65;;;4.75;;
27533;SDS011;14973;51.460;7.008;2022-09-17T03:40:57;27.52;;;4.70;;
27533;SDS011;14973;51.460;7.008;2022-09-17T03:43:27;30.17;;;5.35;;
27533;SDS011;14973;51.460;7.008;2022-09-17T03:45:53;35.45;;;7.30;;
27533;SDS011;14973;51.460;7.008;2022-09-17T03:48:18;38.42;;;4.95;;
27533;SDS011;14973;51.460;7.008;2022-09-17T03:50:44;25.88;;;5.07;;
27533;SDS011;14973;51.460;7.008;2022-09-17T03:53:10;32.35;;;4.57;;
27533;SDS011;14973;51.460;7.008;2022-09-17T03:55:38;23.52;;;3.55;;
27533;SDS011;14973;51.460;7.008;2022-09-17T03:58:04;26.65;;;4.38;;
27533;SDS011;14973;51.460;7.008;2022-09-17T04:00:30;24.40;;;3.50;;
27533;SDS011;14973;51.460;7.008;2022-09-17T04:02:56;33.72;;;4.53;;
27533;SDS011;14973;51.460;7.008;2022-09-17T04:05:22;21.02;;;3.15;;
27533;SDS011;14973;51.460;7.008;2022-09-17T04:07:48;25.33;;;3.35;;
27533;SDS011;14973;51.460;7.008;2022-09-17T04:10:14;25.92;;;3.00;;
27533;SDS011;14973;51.460;7.008;2022-09-17T04:12:40;17.52;;;2.60;;
27533;SDS011;14973;51.460;7.008;2022-09-17T04:15:06;30.73;;;3.30;;
27533;SDS011;14973;51.460;7.008;2022-09-17T04:17:32;16.40;;;2.75;;
27533;SDS011;14973;51.460;7.008;2022-09-17T04:19:58;14.98;;;2.67;;
27533;SDS011;14973;51.460;7.008;2022-09-17T04:22:24;18.05;;;2.78;;
27533;SDS011;14973;51.460;7.008;2022-09-17T04:24:50;18.00;;;2.85;;
27533;SDS011;14973;51.460;7.008;2022-09-17T04:27:15;25.27;;;3.88;;
27533;SDS011;14973;51.460;7.008;2022-09-17T04:29:41;23.48;;;4.38;;
27533;SDS011;14973;51.460;7.008;2022-09-17T04:32:06;28.25;;;3.75;;
27533;SDS011;14973;51.460;7.008;2022-09-17T04:34:32;19.65;;;3.83;;
27533;SDS011;14973;51.460;7.008;2022-09-17T04:36:58;26.23;;;3.72;;
27533;SDS011;14973;51.460;7.008;2022-09-17T04:39:24;22.83;;;3.53;;
27533;SDS011;14973;51.460;7.008;2022-09-17T04:41:49;25.65;;;4.03;;
27533;SDS011;14973;51.460;7.008;2022-09-17T04:44:15;20.40;;;3.10;;
27533;SDS011;14973;51.460;7.008;2022-09-17T04:46:41;25.33;;;4.40;;
27533;SDS011;14973;51.460;7.008;2022-09-17T04:49:06;35.70;;;4.30;;
27533;SDS011;14973;51.460;7.008;2022-09-17T04:51:32;24.15;;;3.60;;
27533;SDS011;14973;51.460;7.008;2022-09-17T04:53:58;15.20;;;3.08;;
27533;SDS011;14973;51.460;7.008;2022-09-17T04:56:24;22.42;;;3.72;;
27533;SDS011;14973;51.460;7.008;2022-09-17T04:58:49;25.30;;;4.93;;
27533;SDS011;14973;51.460;7.008;2022-09-17T05:01:15;35.30;;;4.30;;
27533;SDS011;14973;51.460;7.008;2022-09-17T05:03:42;21.95;;;4.47;;
27533;SDS011;14973;51.460;7.008;2022-09-17T05:06:08;23.42;;;3.70;;
27533;SDS011;14973;51.460;7.008;2022-09-17T05:08:34;18.13;;;2.92;;
27533;SDS011;14973;51.460;7.008;2022-09-17T05:11:00;27.48;;;3.38;;
27533;SDS011;14973;51.460;7.008;2022-09-17T05:13:25;27.67;;;3.80;;
27533;SDS011;14973;51.460;7.008;2022-09-17T05:15:52;26.20;;;3.40;;
27533;SDS011;14973;51.460;7.008;2022-09-17T05:18:21;18.95;;;3.33;;
27533;SDS011;14973;51.460;7.008;2022-09-17T05:20:47;19.10;;;2.75;;
27533;SDS011;14973;51.460;7.008;2022-09-17T05:23:13;20.10;;;2.80;;
27533;SDS011;14973;51.460;7.008;2022-09-17T05:25:38;30.13;;;5.70;;
27533;SDS011;14973;51.460;7.008;2022-09-17T05:28:04;18.88;;;4.18;;
27533;SDS011;14973;51.460;7.008;2022-09-17T05:30:30;30.08;;;4.07;;
27533;SDS011;14973;51.460;7.008;2022-09-17T05:32:57;18.70;;;5.10;;
27533;SDS011;14973;51.460;7.008;2022-09-17T05:35:27;28.77;;;4.95;;
27533;SDS011;14973;51.460;7.008;2022-09-17T05:37:57;27.48;;;5.00;;
27533;SDS011;14973;51.460;7.008;2022-09-17T05:40:27;31.02;;;4.90;;
27533;SDS011;14973;51.460;7.008;2022-09-17T05:42:56;26.60;;;4.70;;
27533;SDS011;14973;51.460;7.008;2022-09-17T05:45:23;30.63;;;5.53;;
27533;SDS011;14973;51.460;7.008;2022-09-17T05:47:53;24.23;;;3.67;;
27533;SDS011;14973;51.460;7.008;2022-09-17T05:50:19;26.30;;;3.83;;
27533;SDS011;14973;51.460;7.008;2022-09-17T05:52:45;27.92;;;3.35;;
27533;SDS011;14973;51.460;7.008;2022-09-17T05:55:10;20.27;;;3.92;;
27533;SDS011;14973;51.460;7.008;2022-09-17T05:57:36;29.55;;;5.45;;
27533;SDS011;14973;51.460;7.008;2022-09-17T06:00:02;24.50;;;4.32;;
27533;SDS011;14973;51.460;7.008;2022-09-17T06:02:29;23.52;;;3.78;;
27533;SDS011;14973;51.460;7.008;2022-09-17T06:04:54;23.73;;;4.63;;
27533;SDS011;14973;51.460;7.008;2022-09-17T06:07:24;27.08;;;5.88;;
27533;SDS011;14973;51.460;7.008;2022-09-17T06:09:50;33.20;;;4.32;;
27533;SDS011;14973;51.460;7.008;2022-09-17T06:12:15;24.80;;;5.53;;
27533;SDS011;14973;51.460;7.008;2022-09-17T06:14:41;30.23;;;3.97;;
27533;SDS011;14973;51.460;7.008;2022-09-17T06:17:07;32.10;;;4.20;;
27533;SDS011;14973;51.460;7.008;2022-09-17T06:19:32;22.23;;;4.40;;
27533;SDS011;14973;51.460;7.008;2022-09-17T06:21:58;31.85;;;4.30;;
27533;SDS011;14973;51.460;7.008;2022-09-17T06:24:23;39.13;;;4.00;;
27533;SDS011;14973;51.460;7.008;2022-09-17T06:26:50;25.65;;;4.03;;
27533;SDS011;14973;51.460;7.008;2022-09-17T06:29:16;35.72;;;4.72;;
27533;SDS011;14973;51.460;7.008;2022-09-17T06:31:42;26.25;;;4.47;;
27533;SDS011;14973;51.460;7.008;2022-09-17T06:34:10;25.33;;;3.83;;
27533;SDS011;14973;51.460;7.008;2022-09-17T06:36:37;28.80;;;4.72;;
27533;SDS011;14973;51.460;7.008;2022-09-17T06:39:03;22.25;;;4.10;;
27533;SDS011;14973;51.460;7.008;2022-09-17T06:41:28;31.58;;;4.95;;
27533;SDS011;14973;51.460;7.008;2022-09-17T06:43:54;30.23;;;5.43;;
27533;SDS011;14973;51.460;7.008;2022-09-17T06:46:20;25.77;;;4.15;;
27533;SDS011;14973;51.460;7.008;2022-09-17T06:48:45;35.83;;;4.07;;
27533;SDS011;14973;51.460;7.008;2022-09-17T06:51:11;23.00;;;5.15;;
27533;SDS011;14973;51.460;7.008;2022-09-17T06:53:37;22.05;;;4.03;;
27533;SDS011;14973;51.460;7.008;2022-09-17T06:56:04;33.05;;;4.82;;
27533;SDS011;14973;51.460;7.008;2022-09-17T06:58:31;27.67;;;4.47;;
27533;SDS011;14973;51.460;7.008;2022-09-17T07:00:58;24.08;;;3.80;;
27533;SDS011;14973;51.460;7.008;2022-09-17T07:03:25;23.52;;;3.80;;
27533;SDS011;14973;51.460;7.008;2022-09-17T07:05:51;25.55;;;3.55;;
27533;SDS011;14973;51.460;7.008;2022-09-17T07:08:17;19.92;;;3.67;;
27533;SDS011;14973;51.460;7.008;2022-09-17T07:10:42;19.58;;;3.90;;
27533;SDS011;14973;51.460;7.008;2022-09-17T07:13:08;17.95;;;3.97;;
27533;SDS011;14973;51.460;7.008;2022-09-17T07:15:34;25.50;;;4.07;;
27533;SDS011;14973;51.460;7.008;2022-09-17T07:17:59;27.30;;;4.70;;
27533;SDS011;14973;51.460;7.008;2022-09-17T07:20:32;24.65;;;4.10;;
27533;SDS011;14973;51.460;7.008;2022-09-17T07:22:58;20.08;;;3.80;;
27533;SDS011;14973;51.460;7.008;2022-09-17T07:25:24;13.93;;;3.55;;
27533;SDS011;14973;51.460;7.008;2022-09-17T07:27:50;17.77;;;3.15;;
27533;SDS011;14973;51.460;7.008;2022-09-17T07:30:16;22.30;;;3.60;;
27533;SDS011;14973;51.460;7.008;2022-09-17T07:32:42;13.73;;;2.50;;
27533;SDS011;14973;51.460;7.008;2022-09-17T07:35:08;18.30;;;3.53;;
27533;SDS011;14973;51.460;7.008;2022-09-17T07:37:34;13.35;;;2.75;;
27533;SDS011;14973;51.460;7.008;2022-09-17T07:40:00;8.50;;;2.78;;
27533;SDS011;14973;51.460;7.008;2022-09-17T07:42:25;12.98;;;2.75;;
27533;SDS011;14973;51.460;7.008;2022-09-17T07:44:51;21.38;;;3.47;;
27533;SDS011;14973;51.460;7.008;2022-09-17T07:47:17;16.60;;;3.10;;
27533;SDS011;14973;51.460;7.008;2022-09-17T07:49:44;18.00;;;3.13;;
27533;SDS011;14973;51.460;7.008;2022-09-17T07:52:09;12.68;;;2.90;;
27533;SDS011;14973;51.460;7.008;2022-09-17T07:54:35;15.60;;;2.75;;
27533;SDS011;14973;51.460;7.008;2022-09-17T07:57:01;13.50;;;2.78;;
27533;SDS011;14973;51.460;7.008;2022-09-17T07:59:27;16.27;;;2.72;;
27533;SDS011;14973;51.460;7.008;2022-09-17T08:01:53;12.15;;;2.58;;
27533;SDS011;14973;51.460;7.008;2022-09-17T08:04:18;11.00;;;2.15;;
27533;SDS011;14973;51.460;7.008;2022-09-17T08:06:44;6.13;;;1.80;;
27533;SDS011;14973;51.460;7.008;2022-09-17T08:09:13;8.18;;;1.67;;
27533;SDS011;14973;51.460;7.008;2022-09-17T08:11:39;8.75;;;1.30;;
27533;SDS011;14973;51.460;7.008;2022-09-17T08:14:08;10.30;;;1.45;;
27533;SDS011;14973;51.460;7.008;2022-09-17T08:16:35;10.02;;;1.75;;
27533;SDS011;14973;51.460;7.008;2022-09-17T08:19:00;6.35;;;1.13;;
27533;SDS011;14973;51.460;7.008;2022-09-17T08:21:27;6.78;;;1.55;;
27533;SDS011;14973;51.460;7.008;2022-09-17T08:23:52;6.18;;;2.08;;
27533;SDS011;14973;51.460;7.008;2022-09-17T08:26:19;9.75;;;1.80;;
27533;SDS011;14973;51.460;7.008;2022-09-17T08:28:55;18.80;;;2.63;;
27533;SDS011;14973;51.460;7.008;2022-09-17T08:31:22;13.15;;;2.33;;
27533;SDS011;14973;51.460;7.008;2022-09-17T08:33:48;11.25;;;2.22;;
27533;SDS011;14973;51.460;7.008;2022-09-17T08:36:15;8.40;;;1.90;;
27533;SDS011;14973;51.460;7.008;2022-09-17T08:38:42;13.35;;;2.50;;
27533;SDS011;14973;51.460;7.008;2022-09-17T08:46:58;13.48;;;2.25;;
27533;SDS011;14973;51.460;7.008;2022-09-17T08:49:41;11.40;;;2.10;;
27533;SDS011;14973;51.460;7.008;2022-09-17T08:52:29;11.70;;;1.52;;
27533;SDS011;14973;51.460;7.008;2022-09-17T09:01:02;5.05;;;1.42;;
27533;SDS011;14973;51.460;7.008;2022-09-17T09:07:01;10.13;;;1.80;;
27533;SDS011;14973;51.460;7.008;2022-09-17T09:09:48;19.40;;;1.48;;
27533;SDS011;14973;51.460;7.008;2022-09-17T09:12:31;9.23;;;2.05;;
27533;SDS011;14973;51.460;7.008;2022-09-17T09:15:00;10.57;;;1.38;;
27533;SDS011;14973;51.460;7.008;2022-09-17T09:17:34;10.32;;;1.73;;
27533;SDS011;14973;51.460;7.008;2022-09-17T09:20:11;9.82;;;1.20;;
27533;SDS011;14973;51.460;7.008;2022-09-17T09:22:50;5.88;;;1.88;;
27533;SDS011;14973;51.460;7.008;2022-09-17T09:25:18;9.20;;;1.30;;
27533;SDS011;14973;51.460;7.008;2022-09-17T09:33:31;34.13;;;2.45;;
27533;SDS011;14973;51.460;7.008;2022-09-17T09:36:01;9.30;;;1.42;;
27533;SDS011;14973;51.460;7.008;2022-09-17T09:38:31;13.52;;;2.03;;
27533;SDS011;14973;51.460;7.008;2022-09-17T09:41:25;13.02;;;1.83;;
27533;SDS011;14973;51.460;7.008;2022-09-17T09:44:02;4.03;;;0.88;;
27533;SDS011;14973;51.460;7.008;2022-09-17T10:03:22;12.77;;;1.30;;
27533;SDS011;14973;51.460;7.008;2022-09-17T10:06:06;9.57;;;1.20;;
27533;SDS011;14973;51.460;7.008;2022-09-17T10:08:38;10.82;;;1.58;;
27533;SDS011;14973;51.460;7.008;2022-09-17T10:11:15;3.90;;;1.13;;
27533;SDS011;14973;51.460;7.008;2022-09-17T10:13:47;9.60;;;1.00;;
27533;SDS011;14973;51.460;7.008;2022-09-17T10:18:42;8.27;;;1.10;;
27533;SDS011;14973;51.460;7.008;2022-09-17T10:21:18;10.93;;;1.73;;
27533;SDS011;14973;51.460;7.008;2022-09-17T10:23:54;7.97;;;1.60;;
27533;SDS011;14973;51.460;7.008;2022-09-17T10:26:29;8.48;;;1.50;;
27533;SDS011;14973;51.460;7.008;2022-09-17T10:28:58;12.95;;;1.60;;
27533;SDS011;14973;51.460;7.008;2022-09-17T10:31:46;14.27;;;1.67;;
27533;SDS011;14973;51.460;7.008;2022-09-17T10:34:23;7.50;;;1.20;;
27533;SDS011;14973;51.460;7.008;2022-09-17T10:36:49;5.20;;;1.17;;
27533;SDS011;14973;51.460;7.008;2022-09-17T10:41:54;6.05;;;1.45;;
27533;SDS011;14973;51.460;7.008;2022-09-17T10:44:21;8.70;;;1.80;;
27533;SDS011;14973;51.460;7.008;2022-09-17T10:46:48;7.80;;;1.27;;
27533;SDS011;14973;51.460;7.008;2022-09-17T10:51:47;6.68;;;1.17;;
27533;SDS011;14973;51.460;7.008;2022-09-17T10:54:48;8.57;;;1.70;;
27533;SDS011;14973;51.460;7.008;2022-09-17T10:57:26;10.93;;;1.75;;
27533;SDS011;14973;51.460;7.008;2022-09-17T11:00:14;5.68;;;1.50;;
27533;SDS011;14973;51.460;7.008;2022-09-17T11:08:07;13.40;;;2.22;;
27533;SDS011;14973;51.460;7.008;2022-09-17T11:13:43;7.90;;;1.00;;
27533;SDS011;14973;51.460;7.008;2022-09-17T11:16:37;11.27;;;1.40;;
27533;SDS011;14973;51.460;7.008;2022-09-17T11:19:13;13.38;;;1.60;;
27533;SDS011;14973;51.460;7.008;2022-09-17T11:21:47;11.07;;;1.80;;
27533;SDS011;14973;51.460;7.008;2022-09-17T11:34:46;6.53;;;0.90;;
27533;SDS011;14973;51.460;7.008;2022-09-17T11:37:45;7.57;;;0.80;;
27533;SDS011;14973;51.460;7.008;2022-09-17T11:46:17;3.97;;;0.68;;
27533;SDS011;14973;51.460;7.008;2022-09-17T11:48:52;2.17;;;1.00;;
27533;SDS011;14973;51.460;7.008;2022-09-17T11:51:48;2.47;;;0.88;;
27533;SDS011;14973;51.460;7.008;2022-09-17T11:54:22;2.97;;;0.55;;
27533;SDS011;14973;51.460;7.008;2022-09-17T12:02:24;2.92;;;0.63;;
27533;SDS011;14973;51.460;7.008;2022-09-17T12:05:00;2.80;;;0.93;;
27533;SDS011;14973;51.460;7.008;2022-09-17T12:10:33;6.13;;;1.23;;
27533;SDS011;14973;51.460;7.008;2022-09-17T12:13:26;5.97;;;1.00;;
27533;SDS011;14973;51.460;7.008;2022-09-17T12:16:03;5.47;;;0.88;;
27533;SDS011;14973;51.460;7.008;2022-09-17T12:18:51;6.88;;;0.95;;
27533;SDS011;14973;51.460;7.008;2022-09-17T12:21:32;7.45;;;1.20;;
27533;SDS011;14973;51.460;7.008;2022-09-17T12:24:14;5.50;;;1.40;;
27533;SDS011;14973;51.460;7.008;2022-09-17T12:30:07;11.35;;;1.60;;
27533;SDS011;14973;51.460;7.008;2022-09-17T12:45:47;10.73;;;2.15;;
27533;SDS011;14973;51.460;7.008;2022-09-17T12:57:22;10.68;;;2.03;;
27533;SDS011;14973;51.460;7.008;2022-09-17T13:18:41;10.82;;;1.48;;
27533;SDS011;14973;51.460;7.008;2022-09-17T13:21:31;12.38;;;1.70;;
27533;SDS011;14973;51.460;7.008;2022-09-17T13:24:21;7.82;;;1.30;;
27533;SDS011;14973;51.460;7.008;2022-09-17T13:26:53;8.10;;;1.33;;
27533;SDS011;14973;51.460;7.008;2022-09-17T13:32:07;9.90;;;1.42;;
27533;SDS011;14973;51.460;7.008;2022-09-17T13:34:33;8.63;;;1.17;;
27533;SDS011;14973;51.460;7.008;2022-09-17T13:37:00;13.10;;;1.63;;
27533;SDS011;14973;51.460;7.008;2022-09-17T13:44:34;8.98;;;1.50;;
27533;SDS011;14973;51.460;7.008;2022-09-17T13:47:23;18.45;;;2.40;;
27533;SDS011;14973;51.460;7.008;2022-09-17T13:50:02;7.18;;;1.48;;
27533;SDS011;14973;51.460;7.008;2022-09-17T13:52:39;8.35;;;1.10;;
27533;SDS011;14973;51.460;7.008;2022-09-17T13:55:08;11.25;;;1.60;;
27533;SDS011;14973;51.460;7.008;2022-09-17T13:57:59;10.05;;;1.20;;
27533;SDS011;14973;51.460;7.008;2022-09-17T14:05:53;3.22;;;0.90;;
27533;SDS011;14973;51.460;7.008;2022-09-17T14:08:23;4.55;;;1.10;;
27533;SDS011;14973;51.460;7.008;2022-09-17T14:13:56;12.40;;;2.40;;
27533;SDS011;14973;51.460;7.008;2022-09-17T14:16:44;7.53;;;1.10;;
27533;SDS011;14973;51.460;7.008;2022-09-17T14:21:41;22.08;;;6.15;;
27533;SDS011;14973;51.460;7.008;2022-09-17T14:27:14;11.23;;;1.42;;
27533;SDS011;14973;51.460;7.008;2022-09-17T14:30:14;5.28;;;1.27;;
27533;SDS011;14973;51.460;7.008;2022-09-17T14:37:49;5.47;;;1.58;;
27533;SDS011;14973;51.460;7.008;2022-09-17T14:40:25;12.40;;;2.55;;
27533;SDS011;14973;51.460;7.008;2022-09-17T14:42:52;9.02;;;1.90;;
27533;SDS011;14973;51.460;7.008;2022-09-17T14:47:56;7.18;;;1.88;;
27533;SDS011;14973;51.460;7.008;2022-09-17T14:50:50;4.90;;;1.33;;
27533;SDS011;14973;51.460;7.008;2022-09-17T14:53:16;11.90;;;2.28;;
27533;SDS011;14973;51.460;7.008;2022-09-17T14:55:46;8.05;;;1.98;;
27533;SDS011;14973;51.460;7.008;2022-09-17T14:58:24;9.25;;;1.90;;
27533;SDS011;14973;51.460;7.008;2022-09-17T15:00:58;18.08;;;2.22;;
27533;SDS011;14973;51.460;7.008;2022-09-17T15:03:24;7.47;;;2.05;;
27533;SDS011;14973;51.460;7.008;2022-09-17T15:05:50;6.68;;;1.50;;
27533;SDS011;14973;51.460;7.008;2022-09-17T15:08:17;7.53;;;2.17;;
27533;SDS011;14973;51.460;7.008;2022-09-17T15:13:30;7.93;;;1.33;;
27533;SDS011;14973;51.460;7.008;2022-09-17T15:16:05;4.32;;;1.10;;
27533;SDS011;14973;51.460;7.008;2022-09-17T15:18:40;8.68;;;1.30;;
27533;SDS011;14973;51.460;7.008;2022-09-17T15:21:17;9.15;;;0.90;;
27533;SDS011;14973;51.460;7.008;2022-09-17T15:24:00;10.60;;;1.25;;
27533;SDS011;14973;51.460;7.008;2022-09-17T15:26:40;6.88;;;1.05;;
27533;SDS011;14973;51.460;7.008;2022-09-17T15:29:11;5.97;;;1.00;;
27533;SDS011;14973;51.460;7.008;2022-09-17T15:31:38;13.07;;;1.10;;
27533;SDS011;14973;51.460;7.008;2022-09-17T15:34:04;10.02;;;1.20;;
27533;SDS011;14973;51.460;7.008;2022-09-17T15:36:30;9.55;;;1.40;;
27533;SDS011;14973;51.460;7.008;2022-09-17T15:38:56;7.75;;;1.35;;
27533;SDS011;14973;51.460;7.008;2022-09-17T15:41:25;15.63;;;1.88;;
27533;SDS011;14973;51.460;7.008;2022-09-17T15:44:05;11.50;;;1.10;;
27533;SDS011;14973;51.460;7.008;2022-09-17T15:46:39;4.55;;;0.90;;
27533;SDS011;14973;51.460;7.008;2022-09-17T15:49:23;4.55;;;0.75;;
27533;SDS011;14973;51.460;7.008;2022-09-17T15:51:52;7.82;;;0.93;;
27533;SDS011;14973;51.460;7.008;2022-09-17T15:54:30;5.18;;;1.13;;
27533;SDS011;14973;51.460;7.008;2022-09-17T15:56:57;2.70;;;1.00;;
27533;SDS011;14973;51.460;7.008;2022-09-17T15:59:29;5.78;;;0.90;;
27533;SDS011;14973;51.460;7.008;2022-09-17T16:01:58;5.00;;;0.98;;
27533;SDS011;14973;51.460;7.008;2022-09-17T16:04:26;10.82;;;1.20;;
27533;SDS011;14973;51.460;7.008;2022-09-17T16:06:57;4.60;;;0.95;;
27533;SDS011;14973;51.460;7.008;2022-09-17T16:09:47;6.65;;;1.17;;
27533;SDS011;14973;51.460;7.008;2022-09-17T16:12:18;10.60;;;1.50;;
27533;SDS011;14973;51.460;7.008;2022-09-17T16:14:47;6.60;;;1.00;;
27533;SDS011;14973;51.460;7.008;2022-09-17T16:17:40;11.98;;;1.63;;
27533;SDS011;14973;51.460;7.008;2022-09-17T16:20:23;10.70;;;1.50;;
27533;SDS011;14973;51.460;7.008;2022-09-17T16:22:49;6.25;;;1.30;;
27533;SDS011;14973;51.460;7.008;2022-09-17T16:25:17;7.20;;;1.52;;
27533;SDS011;14973;51.460;7.008;2022-09-17T16:30:16;7.35;;;1.42;;
27533;SDS011;14973;51.460;7.008;2022-09-17T16:32:44;5.78;;;1.75;;
27533;SDS011;14973;51.460;7.008;2022-09-17T16:35:10;5.22;;;1.10;;
27533;SDS011;14973;51.460;7.008;2022-09-17T16:37:40;10.98;;;1.00;;
27533;SDS011;14973;51.460;7.008;2022-09-17T16:40:08;9.73;;;1.45;;
27533;SDS011;14973;51.460;7.008;2022-09-17T16:42:35;7.25;;;1.48;;
27533;SDS011;14973;51.460;7.008;2022-09-17T16:45:01;8.15;;;1.33;;
27533;SDS011;14973;51.460;7.008;2022-09-17T16:47:28;8.93;;;1.30;;
27533;SDS011;14973;51.460;7.008;2022-09-17T16:49:58;12.32;;;1.25;;
27533;SDS011;14973;51.460;7.008;2022-09-17T16:52:24;6.38;;;1.45;;
27533;SDS011;14973;51.460;7.008;2022-09-17T16:54:49;9.02;;;1.05;;
27533;SDS011;14973;51.460;7.008;2022-09-17T16:57:15;7.88;;;1.58;;
27533;SDS011;14973;51.460;7.008;2022-09-17T16:59:40;2.90;;;1.25;;
27533;SDS011;14973;51.460;7.008;2022-09-17T17:02:06;13.65;;;1.90;;
27533;SDS011;14973;51.460;7.008;2022-09-17T17:04:34;13.73;;;1.90;;
27533;SDS011;14973;51.460;7.008;2022-09-17T17:07:00;11.65;;;1.58;;
27533;SDS011;14973;51.460;7.008;2022-09-17T17:09:25;6.95;;;1.50;;
27533;SDS011;14973;51.460;7.008;2022-09-17T17:11:51;9.40;;;1.83;;
27533;SDS011;14973;51.460;7.008;2022-09-17T17:14:17;17.02;;;1.88;;
27533;SDS011;14973;51.460;7.008;2022-09-17T17:16:43;15.80;;;2.25;;
27533;SDS011;14973;51.460;7.008;2022-09-17T17:19:09;16.65;;;2.15;;
27533;SDS011;14973;51.460;7.008;2022-09-17T17:21:35;14.93;;;2.00;;
27533;SDS011;14973;51.460;7.008;2022-09-17T17:24:01;13.18;;;3.00;;
27533;SDS011;14973;51.460;7.008;2022-09-17T17:26:27;16.15;;;2.35;;
27533;SDS011;14973;51.460;7.008;2022-09-17T17:28:52;11.43;;;1.83;;
27533;SDS011;14973;51.460;7.008;2022-09-17T17:31:18;16.13;;;2.90;;
27533;SDS011;14973;51.460;7.008;2022-09-17T17:33:44;10.25;;;1.77;;
27533;SDS011;14973;51.460;7.008;2022-09-17T17:36:09;13.15;;;2.90;;
27533;SDS011;14973;51.460;7.008;2022-09-17T17:38:36;14.18;;;2.45;;
27533;SDS011;14973;51.460;7.008;2022-09-17T17:43:33;13.25;;;2.17;;
27533;SDS011;14973;51.460;7.008;2022-09-17T17:45:59;12.80;;;2.60;;
27533;SDS011;14973;51.460;7.008;2022-09-17T17:48:25;13.50;;;3.00;;
27533;SDS011;14973;51.460;7.008;2022-09-17T17:50:51;20.38;;;3.08;;
27533;SDS011;14973;51.460;7.008;2022-09-17T17:53:17;16.70;;;2.88;;
27533;SDS011;14973;51.460;7.008;2022-09-17T17:55:42;13.55;;;3.22;;
27533;SDS011;14973;51.460;7.008;2022-09-17T17:58:08;21.90;;;3.83;;
27533;SDS011;14973;51.460;7.008;2022-09-17T18:00:33;21.05;;;6.18;;
27533;SDS011;14973;51.460;7.008;2022-09-17T18:02:59;26.05;;;6.47;;
27533;SDS011;14973;51.460;7.008;2022-09-17T18:05:25;22.17;;;5.70;;
27533;SDS011;14973;51.460;7.008;2022-09-17T18:07:50;22.52;;;4.88;;
27533;SDS011;14973;51.460;7.008;2022-09-17T18:10:16;23.80;;;4.80;;
27533;SDS011;14973;51.460;7.008;2022-09-17T18:12:42;26.30;;;4.55;;
27533;SDS011;14973;51.460;7.008;2022-09-17T18:15:14;19.10;;;3.45;;
27533;SDS011;14973;51.460;7.008;2022-09-17T18:17:40;29.35;;;3.90;;
27533;SDS011;14973;51.460;7.008;2022-09-17T18:20:05;25.75;;;4.03;;
27533;SDS011;14973;51.460;7.008;2022-09-17T18:22:32;22.02;;;4.53;;
27533;SDS011;14973;51.460;7.008;2022-09-17T18:24:58;27.95;;;5.18;;
27533;SDS011;14973;51.460;7.008;2022-09-17T18:27:24;34.95;;;7.10;;